Time;durP1;ratioP1;P1;durP2;ratioP2;P2;SDS_P1;SDS_P2;PMS_P1;PMS_P2;Temp;Humidity;BMP_temperature;BMP_pressure;BME280_temperature;BME280_humidity;BME280_pressure;Samples;Min_cycle;Max_cycle;Signal;HPM_P1;HPM_P2
2024/02/05 00:04:08;;;;;;;0.40;0.10;;;;;;;9.17;100.00;150979.25;10673790;27;20117;-74
2024/02/05 00:09:10;;;;;;;0.00;0.00;;;;;;;9.21;100.00;150988.22;10673518;27;20035;-74
2024/02/05 00:14:12;;;;;;;0.20;0.10;;;;;;;9.22;100.00;150992.13;10671795;27;20087;-74
2024/02/05 00:19:14;;;;;;;0.10;0.10;;;;;;;9.14;100.00;150970.19;10671115;27;20050;-74
2024/02/05 00:24:16;;;;;;;0.00;0.00;;;;;;;9.19;100.00;150984.38;10671663;27;20096;-75
2024/02/05 00:29:18;;;;;;;0.45;0.10;;;;;;;9.19;100.00;150983.09;10671757;27;20091;-73
2024/02/05 00:34:19;;;;;;;0.00;0.00;;;;;;;9.20;100.00;150985.66;10672084;27;20041;-74
2024/02/05 00:39:22;;;;;;;0.10;0.00;;;;;;;9.21;100.00;150989.56;10671309;27;20405;-74
2024/02/05 00:44:24;;;;;;;0.17;0.10;;;;;;;9.27;100.00;151003.75;10671546;27;20047;-74
2024/02/05 00:49:25;;;;;;;0.00;0.00;;;;;;;9.32;100.00;151016.63;10652299;27;20058;-74
2024/02/05 00:54:27;;;;;;;0.00;0.00;;;;;;;9.33;100.00;151020.47;10654600;27;20035;-74
2024/02/05 00:59:29;;;;;;;0.00;0.00;;;;;;;9.31;100.00;151015.34;10671257;27;20062;-74
2024/02/05 01:04:34;;;;;;;0.15;0.10;;;;;;;9.27;100.00;151003.75;10653167;27;20042;-74
2024/02/05 01:09:36;;;;;;;0.13;0.13;;;;;;;9.41;100.00;151039.84;10671754;27;20066;-74
2024/02/05 01:14:38;;;;;;;0.03;0.03;;;;;;;9.34;100.00;151021.78;10670264;27;20049;-75
2024/02/05 01:19:40;;;;;;;0.10;0.10;;;;;;;9.36;100.00;151026.94;10670739;27;20059;-74
2024/02/05 01:24:42;;;;;;;0.10;0.08;;;;;;;9.35;100.00;151025.66;10671033;27;20049;-74
2024/02/05 01:29:44;;;;;;;0.10;0.10;;;;;;;9.31;100.00;151014.06;10653032;27;20073;-75
2024/02/05 01:34:46;;;;;;;0.03;0.03;;;;;;;9.41;100.00;151039.84;10671030;27;20066;-73
2024/02/05 01:39:48;;;;;;;0.00;0.00;;;;;;;9.43;100.00;151043.69;10671090;27;20383;-74
2024/02/05 01:44:51;;;;;;;1.10;0.08;;;;;;;9.42;100.00;151041.13;10670971;27;20042;-75
2024/02/05 01:49:53;;;;;;;0.00;0.00;;;;;;;9.45;100.00;151050.16;10671402;27;20045;-74
2024/02/05 01:54:55;;;;;;;0.00;0.00;;;;;;;9.43;100.00;151045.03;10669162;27;20030;-75
2024/02/05 01:59:57;;;;;;;0.00;0.00;;;;;;;9.45;100.00;151050.16;10669109;27;20047;-74
2024/02/05 02:05:00;;;;;;;0.05;0.05;;;;;;;9.44;100.00;151047.59;10668341;27;20042;-74
2024/02/05 02:10:04;;;;;;;0.00;0.00;;;;;;;9.51;100.00;151065.63;10673203;27;20053;-74
2024/02/05 02:15:06;;;;;;;0.10;0.10;;;;;;;9.47;100.00;151055.31;10676841;27;20047;-74
2024/02/05 02:20:10;;;;;;;0.00;0.00;;;;;;;9.60;100.00;151088.84;10676480;27;20383;-74
2024/02/05 02:25:12;;;;;;;0.00;0.00;;;;;;;9.60;100.00;151088.84;10676626;27;20053;-74
2024/02/05 02:30:16;;;;;;;0.00;0.00;;;;;;;9.65;100.00;151099.19;10658863;27;20058;-74
2024/02/05 02:35:59;;;;;;;0.00;0.00;;;;;;;9.68;100.00;151108.22;10677654;27;20398;-74
2024/02/05 02:41:05;;;;;;;0.00;0.00;;;;;;;9.80;100.00;151137.91;10676270;27;20091;-74
2024/02/05 02:46:08;;;;;;;0.00;0.00;;;;;;;9.83;100.00;151146.94;10675957;27;20053;-74
2024/02/05 02:51:10;;;;;;;0.00;0.00;;;;;;;9.82;100.00;151144.34;10675381;27;20042;-75
2024/02/05 02:56:12;;;;;;;0.35;0.00;;;;;;;9.98;100.00;151184.38;10676498;27;20082;-76
2024/02/05 03:01:14;;;;;;;0.00;0.00;;;;;;;9.93;100.00;151171.47;10640992;27;20394;-74
2024/02/05 03:06:16;;;;;;;0.17;0.00;;;;;;;9.90;100.00;151162.41;10674475;27;20521;-74
2024/02/05 03:11:19;;;;;;;0.00;0.00;;;;;;;9.83;100.00;151146.94;10675083;27;20039;-74
2024/02/05 03:16:20;;;;;;;0.10;0.00;;;;;;;9.76;100.00;151127.59;10674524;27;20073;-74
2024/02/05 03:21:22;;;;;;;0.00;0.00;;;;;;;9.69;100.00;151109.50;10673383;27;20035;-74
2024/02/05 03:26:24;;;;;;;0.10;0.00;;;;;;;9.55;100.00;151075.94;10655327;27;20043;-74
2024/02/05 03:31:26;;;;;;;0.00;0.00;;;;;;;9.64;100.00;151097.88;10654745;27;20061;-74
2024/02/05 03:36:28;;;;;;;0.03;0.03;;;;;;;9.81;100.00;151141.78;10672683;27;20047;-75
2024/02/05 03:41:30;;;;;;;0.00;0.00;;;;;;;9.84;100.00;151149.53;10673114;27;20498;-74
2024/02/05 03:46:31;;;;;;;0.05;0.05;;;;;;;9.71;100.00;151115.97;10674184;27;20114;-74
2024/02/05 03:51:34;;;;;;;0.20;0.10;;;;;;;9.66;100.00;151103.09;10672768;27;20402;-74
2024/02/05 03:56:37;;;;;;;0.08;0.00;;;;;;;9.69;100.00;151110.78;10636750;27;20140;-75
2024/02/05 04:01:39;;;;;;;1.25;0.05;;;;;;;9.71;100.00;151114.69;10671476;27;20049;-74
2024/02/05 04:06:42;;;;;;;0.00;0.00;;;;;;;9.69;100.00;151109.50;10673799;27;20035;-73
2024/02/05 04:11:44;;;;;;;0.03;0.03;;;;;;;9.63;100.00;151094.03;10672191;27;20081;-74
2024/02/05 04:16:46;;;;;;;0.00;0.00;;;;;;;9.65;100.00;151099.19;10671735;27;20043;-74
2024/02/05 04:21:48;;;;;;;0.10;0.00;;;;;;;9.71;100.00;151115.97;10670724;27;20042;-74
2024/02/05 04:26:50;;;;;;;0.32;0.20;;;;;;;9.70;100.00;151112.13;10671608;27;20038;-74
2024/02/05 04:31:52;;;;;;;0.10;0.10;;;;;;;9.53;100.00;151070.81;10669540;27;20117;-75
2024/02/05 04:36:53;;;;;;;0.00;0.00;;;;;;;9.49;100.00;151059.22;10670558;27;20088;-74
2024/02/05 04:41:55;;;;;;;0.43;0.10;;;;;;;9.32;100.00;151017.91;10669448;27;20505;-74
2024/02/05 04:46:57;;;;;;;0.00;0.00;;;;;;;9.38;100.00;151030.81;10669714;27;20380;-73
2024/02/05 04:52:00;;;;;;;0.20;0.10;;;;;;;9.32;100.00;151016.63;10670784;27;20039;-74
2024/02/05 04:57:02;;;;;;;0.28;0.10;;;;;;;9.35;100.00;151024.38;10671012;27;20043;-73
2024/02/05 05:02:04;;;;;;;0.30;0.05;;;;;;;9.25;100.00;150998.56;10670403;27;20046;-73
2024/02/05 05:07:06;;;;;;;0.10;0.00;;;;;;;9.23;100.00;150993.41;10670189;27;20053;-74
2024/02/05 05:12:08;;;;;;;0.30;0.10;;;;;;;9.19;100.00;150983.09;10669082;27;20047;-75
2024/02/05 05:17:09;;;;;;;0.00;0.00;;;;;;;9.17;100.00;150977.94;10668875;27;20058;-74
2024/02/05 05:22:11;;;;;;;0.73;0.10;;;;;;;9.09;100.00;150959.88;10669627;27;20035;-73
2024/02/05 05:27:13;;;;;;;0.08;0.05;;;;;;;9.20;100.00;150985.66;10653731;27;20413;-74
2024/02/05 05:32:15;;;;;;;0.10;0.10;;;;;;;9.23;100.00;150994.69;10669249;27;20050;-72
2024/02/05 05:37:16;;;;;;;0.13;0.10;;;;;;;9.21;100.00;150988.22;10650933;27;20054;-75
2024/02/05 05:42:19;;;;;;;1.25;0.17;;;;;;;9.18;100.00;150981.81;10670230;27;20047;-73
2024/02/05 05:47:20;;;;;;;0.15;0.10;;;;;;;9.27;100.00;151005.03;10659436;27;20084;-74
2024/02/05 05:52:22;;;;;;;0.40;0.20;;;;;;;9.25;100.00;150999.88;10678248;27;20431;-74
2024/02/05 05:57:24;;;;;;;0.43;0.25;;;;;;;9.27;100.00;151003.75;10677963;27;20042;-74
2024/02/05 06:02:26;;;;;;;0.17;0.10;;;;;;;9.34;100.00;151023.09;10677379;27;20050;-72
2024/02/05 06:07:28;;;;;;;0.82;0.52;;;;;;;9.40;100.00;151037.28;10677349;27;20042;-74
2024/02/05 06:12:30;;;;;;;0.40;0.20;;;;;;;9.46;100.00;151051.44;10675931;27;20405;-74
2024/02/05 06:17:32;;;;;;;1.00;0.70;;;;;;;9.50;100.00;151061.78;10677631;27;20049;-73
2024/02/05 06:22:35;;;;;;;0.10;0.10;;;;;;;9.69;100.00;151110.78;10656832;27;20035;-73
2024/02/05 06:27:37;;;;;;;0.20;0.10;;;;;;;9.80;100.00;151139.19;10677607;27;20041;-73
2024/02/05 06:32:39;;;;;;;0.10;0.10;;;;;;;9.98;100.00;151184.38;10677122;27;20531;-73
2024/02/05 06:37:41;;;;;;;0.20;0.20;;;;;;;10.00;100.00;151189.50;10658107;27;20107;-74
2024/02/05 06:42:42;;;;;;;0.75;0.30;;;;;;;10.16;100.00;151229.53;10658213;27;20030;-73
2024/02/05 06:47:44;;;;;;;0.10;0.10;;;;;;;10.25;100.00;151252.81;10677311;27;20050;-75
2024/02/05 06:52:48;;;;;;;0.40;0.20;;;;;;;10.47;100.00;151307.03;10679327;27;20047;-74
2024/02/05 06:57:50;;;;;;;0.82;0.20;;;;;;;10.36;100.00;151279.94;10675032;27;20113;-75
2024/02/05 07:02:52;;;;;;;0.50;0.25;;;;;;;10.34;100.00;151274.75;10656912;27;20099;-73
2024/02/05 07:07:54;;;;;;;0.52;0.17;;;;;;;10.40;100.00;151290.22;10657548;27;20043;-73
2024/02/05 07:12:55;;;;;;;0.10;0.10;;;;;;;10.43;100.00;151298.00;10674564;27;20047;-74
2024/02/05 07:17:57;;;;;;;0.95;0.20;;;;;;;10.32;100.00;151269.63;10673807;27;20041;-73
2024/02/05 07:22:59;;;;;;;1.45;0.30;;;;;;;10.17;100.00;151230.81;10675316;27;20443;-73
2024/02/05 07:28:01;;;;;;;0.82;0.50;;;;;;;10.27;100.00;151256.66;10674573;27;20050;-72
2024/02/05 07:33:03;;;;;;;3.72;0.30;;;;;;;10.40;100.00;151290.22;10674719;27;20394;-73
2024/02/05 07:38:05;;;;;;;0.57;0.30;;;;;;;10.40;100.00;151288.94;10673840;27;20114;-73
2024/02/05 07:43:10;;;;;;;0.98;0.45;;;;;;;10.45;100.00;151303.19;10653727;27;20077;-74
2024/02/05 07:48:12;;;;;;;0.80;0.40;;;;;;;10.44;100.00;151300.56;10653883;27;20084;-73
2024/02/05 07:53:13;;;;;;;0.65;0.40;;;;;;;10.41;100.00;151292.84;10672498;27;20034;-73
2024/02/05 07:58:15;;;;;;;1.27;0.40;;;;;;;10.54;100.00;151325.13;10672799;27;20074;-73
2024/02/05 08:03:17;;;;;;;1.05;0.45;;;;;;;10.54;100.00;151326.44;10672403;27;20035;-74
2024/02/05 08:08:19;;;;;;;1.42;0.60;;;;;;;10.49;100.00;151313.53;10670984;27;20482;-74
2024/02/05 08:13:21;;;;;;;0.73;0.50;;;;;;;10.68;97.83;151360.00;10671657;27;20414;-74
2024/02/05 08:18:23;;;;;;;3.28;0.80;;;;;;;10.78;95.97;151385.81;10671095;27;20090;-75
2024/02/05 08:23:25;;;;;;;6.15;0.60;;;;;;;10.79;95.69;151389.66;10671640;27;20039;-74
2024/02/05 08:28:28;;;;;;;1.38;0.47;;;;;;;10.79;96.16;151389.66;10671503;27;20050;-74
2024/02/05 08:33:31;;;;;;;2.35;0.68;;;;;;;10.91;93.98;151419.38;10653144;27;20039;-73
2024/02/05 08:38:33;;;;;;;0.98;0.50;;;;;;;10.94;93.16;151427.16;10673069;27;20061;-74
2024/02/05 08:43:37;;;;;;;1.90;0.77;;;;;;;10.94;93.81;151427.16;10652317;27;20083;-74
2024/02/05 08:48:40;;;;;;;1.92;0.75;;;;;;;10.99;93.05;151440.06;10670847;27;20070;-74
2024/02/05 08:53:42;;;;;;;2.55;0.80;;;;;;;10.99;93.51;151438.78;10651516;27;20035;-74
2024/02/05 08:58:43;;;;;;;2.65;0.70;;;;;;;11.01;92.60;151445.19;10670674;27;20118;-74
2024/02/05 09:03:45;;;;;;;1.50;0.50;;;;;;;11.15;92.03;151478.78;10670346;27;20035;-74
2024/02/05 09:08:47;;;;;;;0.80;0.70;;;;;;;11.22;90.12;151498.16;10670133;27;20073;-74
2024/02/05 09:13:48;;;;;;;3.03;0.95;;;;;;;11.26;89.76;151508.50;10669443;27;20113;-73
2024/02/05 09:18:50;;;;;;;3.58;0.75;;;;;;;11.21;90.49;151494.31;10654249;27;20122;-75
2024/02/05 09:23:53;;;;;;;2.88;0.80;;;;;;;11.25;88.46;151504.66;10679095;27;20035;-74
2024/02/05 09:28:54;;;;;;;2.83;1.13;;;;;;;11.33;87.39;151525.28;10678410;27;20047;-75
2024/02/05 09:33:56;;;;;;;3.55;0.80;;;;;;;11.35;86.41;151530.47;10678611;27;20066;-75
2024/02/05 09:38:58;;;;;;;2.53;0.80;;;;;;;11.51;84.98;151570.50;10677062;27;20077;-75
2024/02/05 09:44:01;;;;;;;3.33;1.02;;;;;;;11.47;85.14;151561.50;10678811;27;20121;-74
2024/02/05 09:49:05;;;;;;;2.63;1.17;;;;;;;11.42;83.69;151547.25;10677863;27;20045;-74
2024/02/05 09:54:09;;;;;;;3.83;1.05;;;;;;;11.34;85.30;151527.91;10676193;27;20038;-74
2024/02/05 09:59:22;;;;;;;2.42;0.70;;;;;;;11.33;84.94;151525.28;10677090;27;20543;-75
2024/02/05 10:04:25;;;;;;;2.90;1.17;;;;;;;11.32;82.85;151524.00;10676212;27;20030;-75
2024/02/05 10:09:29;;;;;;;2.45;0.75;;;;;;;11.33;82.68;151525.28;10658153;27;20031;-75
2024/02/05 10:14:31;;;;;;;2.65;0.80;;;;;;;11.41;82.89;151545.97;10676936;27;20394;-74
2024/02/05 10:19:34;;;;;;;1.25;0.70;;;;;;;11.32;83.50;151522.72;10676738;27;20451;-74
2024/02/05 10:24:42;;;;;;;3.13;1.15;;;;;;;11.44;81.33;151552.44;10676475;27;20046;-74
2024/02/05 10:29:44;;;;;;;4.38;1.20;;;;;;;11.51;79.14;151570.50;10643800;27;20126;-74
2024/02/05 10:34:51;;;;;;;3.15;0.98;;;;;;;11.51;77.56;151570.50;10639137;27;20045;-74
2024/02/05 10:40:10;;;;;;;4.47;1.20;;;;;;;11.43;78.83;151551.16;10675891;27;20463;-74
2024/02/05 10:45:12;;;;;;;5.43;1.17;;;;;;;11.48;76.47;151564.06;10657382;27;20030;-75
2024/02/05 10:50:14;;;;;;;4.28;1.45;;;;;;;11.47;75.76;151561.50;10656710;27;20084;-75
2024/02/05 10:55:17;;;;;;;5.95;1.42;;;;;;;11.67;75.39;151611.88;10675533;27;20412;-75
2024/02/05 11:00:19;;;;;;;3.08;1.10;;;;;;;11.55;76.15;151582.19;10656037;27;20050;-74
2024/02/05 11:05:24;;;;;;;3.25;1.00;;;;;;;11.51;74.88;151571.84;10674976;27;20074;-75
2024/02/05 11:10:28;;;;;;;2.13;1.13;;;;;;;11.57;74.42;151587.31;10675310;27;20042;-74
2024/02/05 11:15:40;;;;;;;1.70;1.02;;;;;;;11.48;73.82;151564.06;10674487;27;20042;-75
2024/02/05 11:20:45;;;;;;;3.50;1.13;;;;;;;11.60;72.75;151593.81;10673664;27;20043;-74
2024/02/05 11:25:47;;;;;;;3.70;1.08;;;;;;;11.62;72.57;151598.94;10673316;27;20043;-74
2024/02/05 11:30:49;;;;;;;3.65;1.92;;;;;;;11.57;72.48;151587.31;10654980;27;20524;-75
2024/02/05 11:35:51;;;;;;;3.45;1.23;;;;;;;11.63;71.34;151602.81;10673546;27;20549;-74
2024/02/05 11:40:53;;;;;;;2.55;1.13;;;;;;;11.89;68.36;151666.19;10672688;27;20039;-74
2024/02/05 11:45:55;;;;;;;3.60;1.20;;;;;;;11.69;70.72;151615.78;10673888;27;20031;-74
2024/02/05 11:50:59;;;;;;;5.10;1.25;;;;;;;12.24;66.99;151756.69;10673690;27;20099;-75
2024/02/05 11:56:01;;;;;;;8.45;1.25;;;;;;;12.62;66.52;151852.38;10673427;27;20099;-74
2024/02/05 12:01:05;;;;;;;3.63;1.40;;;;;;;12.74;64.72;151882.09;10655343;27;20099;-73
2024/02/05 12:06:07;;;;;;;4.15;2.38;;;;;;;12.44;65.46;151805.78;10673575;27;20459;-74
2024/02/05 12:11:11;;;;;;;3.90;1.00;;;;;;;12.28;66.48;151767.03;10672779;27;20091;-75
2024/02/05 12:16:13;;;;;;;3.58;1.27;;;;;;;12.58;65.42;151843.31;10674422;27;20046;-73
2024/02/05 12:21:15;;;;;;;5.60;0.90;;;;;;;12.95;64.04;151936.41;10673713;27;20524;-74
2024/02/05 12:26:17;;;;;;;2.83;1.10;;;;;;;12.77;64.53;151891.16;10655797;27;20035;-75
2024/02/05 12:31:20;;;;;;;3.83;1.15;;;;;;;12.80;64.57;151898.94;10672371;27;20039;-75
2024/02/05 12:36:25;;;;;;;3.08;1.42;;;;;;;12.50;66.47;151821.34;10673522;27;20042;-75
2024/02/05 12:41:28;;;;;;;3.33;1.08;;;;;;;12.75;65.48;151886.00;10672305;27;20047;-74
2024/02/05 12:46:30;;;;;;;3.33;1.15;;;;;;;12.70;65.88;151873.03;10637124;27;20084;-74
2024/02/05 12:51:32;;;;;;;2.40;0.70;;;;;;;12.82;65.10;151902.78;10672643;27;20046;-75
2024/02/05 12:56:34;;;;;;;4.05;0.73;;;;;;;12.73;65.59;151880.81;10652068;27;20041;-75
2024/02/05 13:01:36;;;;;;;3.22;1.00;;;;;;;12.78;63.90;151892.44;10671323;27;20077;-74
2024/02/05 13:06:40;;;;;;;2.83;0.98;;;;;;;12.86;64.40;151913.16;10670166;27;20491;-74
2024/02/05 13:11:42;;;;;;;2.72;0.90;;;;;;;12.76;64.78;151887.28;10670486;27;20414;-74
2024/02/05 13:16:44;;;;;;;2.22;0.80;;;;;;;12.82;64.97;151904.06;10670019;27;20549;-74
2024/02/05 13:21:46;;;;;;;3.78;1.15;;;;;;;12.91;65.79;151926.06;10653088;27;20111;-74
2024/02/05 13:26:48;;;;;;;2.03;0.77;;;;;;;12.88;66.71;151919.63;10636047;27;20121;-73
2024/02/05 13:31:50;;;;;;;2.70;0.77;;;;;;;12.72;65.83;151878.22;10670717;27;20119;-74
2024/02/05 13:36:53;;;;;;;2.83;0.90;;;;;;;12.65;66.69;151858.81;10670160;27;20071;-75
2024/02/05 13:41:56;;;;;;;5.68;1.05;;;;;;;12.75;64.05;151884.66;10670384;27;20098;-75
2024/02/05 13:46:58;;;;;;;3.75;0.90;;;;;;;12.86;64.56;151913.16;10652373;27;20031;-75
2024/02/05 13:52:00;;;;;;;2.30;0.90;;;;;;;12.87;64.73;151915.72;10651305;27;20080;-74
2024/02/05 13:57:03;;;;;;;3.13;0.75;;;;;;;12.66;66.31;151861.41;10669061;27;20041;-74
2024/02/05 14:02:05;;;;;;;1.80;0.65;;;;;;;12.69;66.14;151869.16;10670375;27;20043;-75
2024/02/05 14:07:07;;;;;;;1.98;0.95;;;;;;;12.67;66.15;151864.03;10659783;27;20035;-74
2024/02/05 14:12:09;;;;;;;3.72;0.88;;;;;;;12.53;66.81;151830.41;10676570;27;20046;-74
2024/02/05 14:17:11;;;;;;;3.58;1.15;;;;;;;12.59;64.74;151845.91;10676775;27;20039;-73
2024/02/05 14:22:12;;;;;;;4.45;1.10;;;;;;;12.71;64.37;151874.38;10676339;27;20117;-73
2024/02/05 14:27:14;;;;;;;3.53;0.88;;;;;;;12.76;63.07;151888.59;10656738;27;20094;-73
2024/02/05 14:32:16;;;;;;;3.10;1.08;;;;;;;12.60;62.68;151848.47;10657646;27;20050;-73
2024/02/05 14:37:18;;;;;;;3.22;1.17;;;;;;;12.70;62.59;151873.03;10675825;27;20525;-74
2024/02/05 14:42:19;;;;;;;3.08;0.70;;;;;;;12.55;63.38;151835.53;10674985;27;20165;-73
2024/02/05 14:47:21;;;;;;;3.33;1.40;;;;;;;12.53;63.51;151829.09;10675851;27;20066;-73
2024/02/05 14:52:24;;;;;;;4.22;1.00;;;;;;;12.58;62.48;151843.31;10657243;27;20107;-73
2024/02/05 14:57:26;;;;;;;2.50;1.30;;;;;;;12.26;64.18;151760.53;10674968;27;20034;-75
2024/02/05 15:02:28;;;;;;;2.90;1.50;;;;;;;12.35;65.10;151783.81;10676627;27;20038;-75
2024/02/05 15:07:30;;;;;;;1.02;0.60;;;;;;;12.28;66.05;151765.72;10675740;27;20457;-74
2024/02/05 15:12:32;;;;;;;1.63;0.63;;;;;;;12.14;68.29;151729.56;10675536;27;20486;-73
2024/02/05 15:17:34;;;;;;;1.25;0.80;;;;;;;11.84;69.68;151655.84;10675664;27;20034;-73
2024/02/05 15:22:36;;;;;;;3.15;0.90;;;;;;;11.86;68.59;151659.72;10675385;27;20095;-73
2024/02/05 15:27:38;;;;;;;3.40;2.25;;;;;;;11.95;67.01;151681.69;10674059;27;20031;-74
2024/02/05 15:32:39;;;;;;;4.60;2.58;;;;;;;11.90;67.52;151670.06;10674358;27;20122;-73
2024/02/05 15:37:41;;;;;;;7.80;1.30;;;;;;;11.75;68.01;151632.53;10674511;27;20046;-73
2024/02/05 15:42:43;;;;;;;2.83;1.80;;;;;;;11.58;69.00;151589.91;10672703;27;20410;-73
2024/02/05 15:47:45;;;;;;;6.07;1.95;;;;;;;11.51;68.57;151571.84;10674895;27;20038;-74
2024/02/05 15:52:47;;;;;;;2.92;1.85;;;;;;;11.44;68.67;151553.72;10654893;27;20137;-74
2024/02/05 15:57:49;;;;;;;1.98;0.90;;;;;;;11.31;69.33;151520.13;10670979;27;20117;-73
2024/02/05 16:02:51;;;;;;;3.08;1.40;;;;;;;11.47;68.38;151561.50;10672452;27;20055;-73
2024/02/05 16:07:52;;;;;;;2.95;1.70;;;;;;;11.32;69.44;151524.00;10672384;27;20127;-73
2024/02/05 16:12:54;;;;;;;1.65;1.08;;;;;;;11.22;69.79;151498.16;10673941;27;20436;-74
2024/02/05 16:17:56;;;;;;;2.75;1.40;;;;;;;11.24;69.66;151503.31;10673234;27;20099;-74
2024/02/05 16:22:58;;;;;;;3.97;2.50;;;;;;;11.09;70.13;151464.59;10671736;27;20078;-73
2024/02/05 16:28:01;;;;;;;4.68;2.25;;;;;;;11.06;70.42;151456.81;10672409;27;20055;-74
2024/02/05 16:33:03;;;;;;;2.25;0.90;;;;;;;10.94;70.97;151427.16;10672273;27;20357;-73
2024/02/05 16:38:11;;;;;;;1.85;0.90;;;;;;;10.82;72.14;151396.13;10673446;27;20053;-73
2024/02/05 16:43:13;;;;;;;7.50;1.17;;;;;;;10.72;72.18;151370.34;10654558;27;20409;-74
2024/02/05 16:48:15;;;;;;;2.45;0.88;;;;;;;10.56;73.16;151331.56;10672437;27;20118;-73
2024/02/05 16:53:16;;;;;;;2.47;1.20;;;;;;;10.49;73.49;151313.53;10669172;27;20035;-73
2024/02/05 16:58:18;;;;;;;1.50;0.98;;;;;;;10.40;74.39;151288.94;10671007;27;20095;-72
2024/02/05 17:03:20;;;;;;;2.08;1.05;;;;;;;10.44;73.74;151300.56;10672673;27;20035;-74
2024/02/05 17:08:23;;;;;;;2.55;1.27;;;;;;;10.33;74.22;151273.47;10672774;27;20478;-73
2024/02/05 17:13:24;;;;;;;1.50;0.88;;;;;;;10.31;74.46;151268.34;10670931;27;20070;-73
2024/02/05 17:18:28;;;;;;;3.30;1.10;;;;;;;10.19;74.91;151237.28;10665239;27;20066;-73
2024/02/05 17:23:30;;;;;;;2.28;1.52;;;;;;;10.07;75.92;151206.31;10628515;27;20054;-74
2024/02/05 17:28:32;;;;;;;2.28;1.05;;;;;;;9.99;76.31;151185.66;10627833;28;20463;-74
2024/02/05 17:33:34;;;;;;;2.22;1.10;;;;;;;9.97;76.31;151180.50;10627832;27;20479;-74
2024/02/05 17:38:36;;;;;;;4.60;1.40;;;;;;;9.85;77.07;151150.81;10638297;27;20087;-75
2024/02/05 17:43:39;;;;;;;3.83;1.13;;;;;;;9.95;75.96;151175.31;10703874;27;20106;-74
2024/02/05 17:48:44;;;;;;;1.45;1.05;;;;;;;9.92;76.45;151168.91;10714203;27;20125;-75
2024/02/05 17:53:46;;;;;;;1.92;1.02;;;;;;;9.89;75.97;151159.84;10703982;27;20052;-74
2024/02/05 17:58:48;;;;;;;2.72;1.05;;;;;;;9.84;76.05;151148.25;10723152;27;20041;-74
2024/02/05 18:03:51;;;;;;;4.50;1.10;;;;;;;10.05;74.60;151202.44;10703224;27;20042;-73
2024/02/05 18:08:53;;;;;;;2.25;1.10;;;;;;;10.01;74.40;151190.84;10703899;27;20121;-73
2024/02/05 18:13:55;;;;;;;0.88;0.80;;;;;;;9.70;76.31;151113.41;10721023;27;20047;-73
2024/02/05 18:18:58;;;;;;;2.58;1.42;;;;;;;9.86;75.21;151153.38;10720460;27;20133;-74
2024/02/05 18:24:02;;;;;;;4.35;0.95;;;;;;;9.94;74.33;151172.75;10702535;27;20042;-74
2024/02/05 18:29:04;;;;;;;5.25;1.00;;;;;;;9.95;73.96;151176.59;10701979;27;20050;-74
2024/02/05 18:34:06;;;;;;;3.30;1.00;;;;;;;9.95;74.21;151176.59;10702792;27;20404;-74
2024/02/05 18:39:09;;;;;;;2.13;1.02;;;;;;;9.92;74.24;151168.91;10701051;27;20050;-74
2024/02/05 18:44:11;;;;;;;3.20;1.13;;;;;;;10.02;73.32;151193.41;10721857;27;20038;-74
2024/02/05 18:49:13;;;;;;;1.23;0.85;;;;;;;10.09;72.15;151212.78;10701718;27;20058;-74
2024/02/05 18:54:15;;;;;;;3.55;1.33;;;;;;;10.13;72.00;151220.50;10720189;27;20034;-73
2024/02/05 18:59:16;;;;;;;1.52;1.02;;;;;;;10.10;72.50;151215.34;10700293;27;20051;-74
2024/02/05 19:04:18;;;;;;;1.85;0.60;;;;;;;10.04;72.35;151199.84;10719953;27;20038;-74
2024/02/05 19:09:21;;;;;;;3.55;1.02;;;;;;;10.03;72.27;151197.25;10719605;27;20049;-73
2024/02/05 19:14:23;;;;;;;2.38;0.90;;;;;;;10.02;72.15;151194.69;10718642;27;20047;-74
2024/02/05 19:19:25;;;;;;;5.30;1.10;;;;;;;10.08;71.77;151208.88;10699479;27;20047;-74
2024/02/05 19:24:28;;;;;;;2.72;1.20;;;;;;;10.07;71.64;151206.31;10718418;27;20056;-73
2024/02/05 19:29:30;;;;;;;3.40;0.88;;;;;;;9.91;72.55;151166.28;10716816;27;20048;-74
2024/02/05 19:34:33;;;;;;;3.55;1.08;;;;;;;9.91;72.51;151166.28;10717685;27;20125;-74
2024/02/05 19:39:35;;;;;;;3.28;0.98;;;;;;;9.68;72.83;151106.94;10701817;27;20440;-74
2024/02/05 19:44:37;;;;;;;1.95;0.80;;;;;;;9.81;72.36;151140.47;10717036;27;20474;-74
2024/02/05 19:49:38;;;;;;;7.85;0.98;;;;;;;9.81;72.16;151141.78;10716857;27;20038;-74
2024/02/05 19:54:40;;;;;;;2.75;0.85;;;;;;;9.83;71.98;151145.66;10717159;27;20121;-74
2024/02/05 19:59:42;;;;;;;4.22;1.00;;;;;;;9.81;71.17;151140.47;10716803;27;20049;-76
2024/02/05 20:04:44;;;;;;;4.03;1.10;;;;;;;9.68;72.49;151108.22;10697866;27;20038;-74
2024/02/05 20:09:46;;;;;;;2.30;1.00;;;;;;;9.66;72.04;151101.78;10715858;27;20049;-73
2024/02/05 20:14:48;;;;;;;1.48;1.10;;;;;;;9.66;72.41;151101.78;10697159;27;20042;-74
2024/02/05 20:19:50;;;;;;;2.72;1.00;;;;;;;9.76;70.90;151127.59;10698141;27;20536;-74
2024/02/05 20:24:54;;;;;;;1.77;0.85;;;;;;;9.84;70.37;151148.25;10715498;27;20051;-74
2024/02/05 20:29:56;;;;;;;3.35;1.05;;;;;;;9.58;71.65;151082.44;10697561;27;20066;-74
2024/02/05 20:34:58;;;;;;;2.45;1.15;;;;;;;9.63;71.17;151094.03;10715714;27;20058;-74
2024/02/05 20:40:03;;;;;;;3.08;1.10;;;;;;;9.76;70.06;151128.88;10715315;27;20046;-75
2024/02/05 20:45:06;;;;;;;4.60;1.00;;;;;;;9.74;69.71;151122.41;10696572;27;20133;-74
2024/02/05 20:50:08;;;;;;;2.40;0.80;;;;;;;9.67;70.21;151104.38;10715029;27;20046;-74
2024/02/05 20:55:12;;;;;;;3.17;1.33;;;;;;;9.55;70.25;151075.94;10714763;27;20038;-74
2024/02/05 21:00:15;;;;;;;1.58;0.80;;;;;;;9.64;70.22;151096.59;10715946;27;20387;-75
2024/02/05 21:05:21;;;;;;;4.28;0.90;;;;;;;9.44;71.02;151047.59;10679558;27;20086;-75
2024/02/05 21:10:23;;;;;;;4.60;1.00;;;;;;;9.45;71.26;151050.16;10695711;27;20527;-74
2024/02/05 21:15:25;;;;;;;2.55;1.08;;;;;;;9.58;71.02;151083.72;10714028;27;20034;-74
2024/02/05 21:20:28;;;;;;;2.22;1.20;;;;;;;9.35;71.93;151024.38;10713874;27;20087;-74
2024/02/05 21:25:30;;;;;;;5.07;1.20;;;;;;;9.09;73.80;150958.59;10714474;27;20141;-75
2024/02/05 21:30:33;;;;;;;2.97;0.80;;;;;;;9.11;73.52;150963.72;10678152;27;20137;-73
2024/02/05 21:35:36;;;;;;;1.75;1.20;;;;;;;8.96;74.62;150926.34;10678034;27;20047;-74
2024/02/05 21:40:38;;;;;;;2.75;1.50;;;;;;;8.91;75.22;150913.47;10695597;27;20125;-73
2024/02/05 21:45:40;;;;;;;1.67;1.15;;;;;;;8.87;75.36;150903.13;10694828;27;20042;-73
2024/02/05 21:50:42;;;;;;;5.68;1.10;;;;;;;9.03;74.22;150943.09;10694137;27;20137;-75
2024/02/05 21:55:44;;;;;;;1.13;1.02;;;;;;;8.93;74.70;150918.59;10712791;27;20034;-73
2024/02/05 22:00:46;;;;;;;2.45;1.20;;;;;;;8.88;75.03;150905.72;10694484;27;20501;-73
2024/02/05 22:05:48;;;;;;;4.75;1.20;;;;;;;8.91;75.03;150912.19;10714010;27;20031;-73
2024/02/05 22:10:50;;;;;;;4.55;1.10;;;;;;;8.80;75.27;150885.06;10696018;27;20097;-74
2024/02/05 22:15:53;;;;;;;2.90;1.00;;;;;;;8.77;76.16;150877.38;10712710;27;20034;-73
2024/02/05 22:20:55;;;;;;;1.98;0.85;;;;;;;8.67;76.53;150851.53;10694007;27;20038;-74
2024/02/05 22:25:57;;;;;;;5.13;1.05;;;;;;;8.80;75.39;150886.34;10715098;27;20034;-74
2024/02/05 22:30:59;;;;;;;3.40;1.23;;;;;;;8.68;76.38;150854.16;10719600;27;20153;-73
2024/02/05 22:36:04;;;;;;;3.33;1.27;;;;;;;8.63;76.85;150842.50;10720558;27;20134;-76
2024/02/05 22:41:09;;;;;;;4.35;1.45;;;;;;;8.62;76.82;150838.66;10720235;27;20046;-73
2024/02/05 22:46:10;;;;;;;2.38;1.13;;;;;;;8.61;77.51;150837.38;10683475;27;20053;-75
2024/02/05 22:51:12;;;;;;;8.07;2.20;;;;;;;8.55;78.14;150821.94;10718898;27;20038;-74
2024/02/05 22:56:15;;;;;;;6.20;0.98;;;;;;;8.77;76.49;150877.38;10718563;27;20069;-74
2024/02/05 23:01:16;;;;;;;6.60;1.45;;;;;;;8.59;77.50;150832.25;10699581;27;20616;-73
2024/02/05 23:06:18;;;;;;;2.10;1.00;;;;;;;8.76;77.01;150874.75;10719319;27;20058;-73
2024/02/05 23:11:20;;;;;;;5.22;1.10;;;;;;;8.66;77.40;150848.97;10698949;27;20409;-74
2024/02/05 23:16:22;;;;;;;3.72;1.30;;;;;;;8.69;77.08;150858.00;10718283;27;20090;-74